sensor_id;sensor_type;location;lat;lon;timestamp;pressure;altitude;pressure_sealevel;temperature;humidity
73101;BME280;61288;53.446;-2.266;2023-12-20T00:02:18;102473.59;;;6.29;100.00
73101;BME280;61288;53.446;-2.266;2023-12-20T00:04:44;102470.22;;;6.31;100.00
73101;BME280;61288;53.446;-2.266;2023-12-20T00:07:09;102481.38;;;6.32;100.00
73101;BME280;61288;53.446;-2.266;2023-12-20T00:09:35;102477.97;;;6.33;100.00
73101;BME280;61288;53.446;-2.266;2023-12-20T00:12:00;102479.69;;;6.37;100.00
73101;BME280;61288;53.446;-2.266;2023-12-20T00:14:26;102476.25;;;6.40;100.00
73101;BME280;61288;53.446;-2.266;2023-12-20T00:16:51;102472.81;;;6.38;100.00
73101;BME280;61288;53.446;-2.266;2023-12-20T00:19:16;102477.97;;;6.38;100.00
73101;BME280;61288;53.446;-2.266;2023-12-20T00:21:42;102466.81;;;6.37;100.00
73101;BME280;61288;53.446;-2.266;2023-12-20T00:24:07;102473.69;;;6.38;100.00
73101;BME280;61288;53.446;-2.266;2023-12-20T00:26:33;102473.69;;;6.40;100.00
73101;BME280;61288;53.446;-2.266;2023-12-20T00:28:59;102454.81;;;6.41;100.00
73101;BME280;61288;53.446;-2.266;2023-12-20T00:31:29;102453.09;;;6.38;100.00
73101;BME280;61288;53.446;-2.266;2023-12-20T00:33:54;102462.53;;;6.39;100.00
73101;BME280;61288;53.446;-2.266;2023-12-20T00:36:20;102465.97;;;6.41;100.00
73101;BME280;61288;53.446;-2.266;2023-12-20T00:38:46;102460.81;;;6.43;100.00
73101;BME280;61288;53.446;-2.266;2023-12-20T00:41:11;102462.53;;;6.44;100.00
73101;BME280;61288;53.446;-2.266;2023-12-20T00:43:37;102463.41;;;6.44;100.00
73101;BME280;61288;53.446;-2.266;2023-12-20T00:46:02;102465.13;;;6.42;100.00
73101;BME280;61288;53.446;-2.266;2023-12-20T00:48:28;102470.25;;;6.41;100.00
73101;BME280;61288;53.446;-2.266;2023-12-20T00:50:55;102446.22;;;6.42;100.00
73101;BME280;61288;53.446;-2.266;2023-12-20T00:53:21;102454.84;;;6.48;100.00
73101;BME280;61288;53.446;-2.266;2023-12-20T00:55:46;102448.84;;;6.48;100.00
73101;BME280;61288;53.446;-2.266;2023-12-20T00:58:11;102458.28;;;6.47;100.00
73101;BME280;61288;53.446;-2.266;2023-12-20T01:00:37;102446.28;;;6.48;100.00
73101;BME280;61288;53.446;-2.266;2023-12-20T01:03:02;102449.69;;;6.48;100.00
73101;BME280;61288;53.446;-2.266;2023-12-20T01:05:28;102438.53;;;6.49;100.00
73101;BME280;61288;53.446;-2.266;2023-12-20T01:07:54;102434.28;;;6.50;100.00
73101;BME280;61288;53.446;-2.266;2023-12-20T01:10:19;102436.84;;;6.52;100.00
73101;BME280;61288;53.446;-2.266;2023-12-20T01:12:45;102433.41;;;6.51;100.00
73101;BME280;61288;53.446;-2.266;2023-12-20T01:15:10;102438.56;;;6.53;100.00
73101;BME280;61288;53.446;-2.266;2023-12-20T01:17:36;102431.69;;;6.53;100.00
73101;BME280;61288;53.446;-2.266;2023-12-20T01:20:02;102437.72;;;6.52;100.00
73101;BME280;61288;53.446;-2.266;2023-12-20T01:22:27;102435.97;;;6.53;100.00
73101;BME280;61288;53.446;-2.266;2023-12-20T01:24:53;102436.00;;;6.51;100.00
73101;BME280;61288;53.446;-2.266;2023-12-20T01:27:18;102444.56;;;6.50;100.00
73101;BME280;61288;53.446;-2.266;2023-12-20T01:29:44;102430.81;;;6.48;100.00
73101;BME280;61288;53.446;-2.266;2023-12-20T01:32:09;102429.94;;;6.47;100.00
73101;BME280;61288;53.446;-2.266;2023-12-20T01:34:35;102423.09;;;6.49;100.00
73101;BME280;61288;53.446;-2.266;2023-12-20T01:37:01;102422.25;;;6.54;100.00
73101;BME280;61288;53.446;-2.266;2023-12-20T01:39:27;102416.25;;;6.56;100.00
73101;BME280;61288;53.446;-2.266;2023-12-20T01:41:53;102400.78;;;6.58;100.00
73101;BME280;61288;53.446;-2.266;2023-12-20T01:44:18;102411.13;;;6.62;100.00
73101;BME280;61288;53.446;-2.266;2023-12-20T01:46:45;102404.25;;;6.64;100.00
73101;BME280;61288;53.446;-2.266;2023-12-20T01:49:12;102389.69;;;6.70;100.00
73101;BME280;61288;53.446;-2.266;2023-12-20T01:51:38;102387.13;;;6.68;100.00
73101;BME280;61288;53.446;-2.266;2023-12-20T01:54:04;102390.53;;;6.67;100.00
73101;BME280;61288;53.446;-2.266;2023-12-20T01:56:31;102384.53;;;6.67;100.00
73101;BME280;61288;53.446;-2.266;2023-12-20T01:58:57;102382.81;;;6.69;100.00
73101;BME280;61288;53.446;-2.266;2023-12-20T02:01:24;102377.66;;;6.70;100.00
73101;BME280;61288;53.446;-2.266;2023-12-20T02:03:50;102386.25;;;6.72;100.00
73101;BME280;61288;53.446;-2.266;2023-12-20T02:06:18;102382.81;;;6.75;100.00
73101;BME280;61288;53.446;-2.266;2023-12-20T02:08:43;102390.56;;;6.73;100.00
73101;BME280;61288;53.446;-2.266;2023-12-20T02:11:10;102387.13;;;6.74;100.00
73101;BME280;61288;53.446;-2.266;2023-12-20T02:13:35;102393.13;;;6.75;100.00
73101;BME280;61288;53.446;-2.266;2023-12-20T02:16:01;102380.25;;;6.76;100.00
73101;BME280;61288;53.446;-2.266;2023-12-20T02:18:26;102380.25;;;6.76;100.00
73101;BME280;61288;53.446;-2.266;2023-12-20T02:20:52;102386.28;;;6.75;100.00
73101;BME280;61288;53.446;-2.266;2023-12-20T02:23:18;102399.16;;;6.78;100.00
73101;BME280;61288;53.446;-2.266;2023-12-20T02:25:44;102388.88;;;6.83;100.00
73101;BME280;61288;53.446;-2.266;2023-12-20T02:28:09;102394.91;;;6.88;100.00
73101;BME280;61288;53.446;-2.266;2023-12-20T02:30:35;102388.00;;;6.89;100.00
73101;BME280;61288;53.446;-2.266;2023-12-20T02:33:03;102392.31;;;6.88;100.00
73101;BME280;61288;53.446;-2.266;2023-12-20T02:35:29;102399.19;;;6.89;100.00
73101;BME280;61288;53.446;-2.266;2023-12-20T02:37:54;102398.31;;;6.89;100.00
73101;BME280;61288;53.446;-2.266;2023-12-20T02:40:20;102385.44;;;6.89;100.00
73101;BME280;61288;53.446;-2.266;2023-12-20T02:42:45;102380.28;;;6.90;100.00
73101;BME280;61288;53.446;-2.266;2023-12-20T02:45:11;102382.00;;;6.91;100.00
73101;BME280;61288;53.446;-2.266;2023-12-20T02:47:36;102378.56;;;6.96;100.00
73101;BME280;61288;53.446;-2.266;2023-12-20T02:50:02;102376.84;;;6.98;100.00
73101;BME280;61288;53.446;-2.266;2023-12-20T02:52:29;102375.16;;;6.98;100.00
73101;BME280;61288;53.446;-2.266;2023-12-20T02:54:54;102366.56;;;7.02;100.00
73101;BME280;61288;53.446;-2.266;2023-12-20T02:57:19;102373.44;;;7.05;100.00
73101;BME280;61288;53.446;-2.266;2023-12-20T02:59:45;102375.16;;;7.04;100.00
73101;BME280;61288;53.446;-2.266;2023-12-20T03:02:10;102382.03;;;7.07;100.00
73101;BME280;61288;53.446;-2.266;2023-12-20T03:04:36;102387.19;;;7.07;100.00
73101;BME280;61288;53.446;-2.266;2023-12-20T03:07:01;102381.19;;;7.06;100.00
73101;BME280;61288;53.446;-2.266;2023-12-20T03:09:27;102371.72;;;7.08;100.00
73101;BME280;61288;53.446;-2.266;2023-12-20T03:11:52;102369.16;;;7.08;100.00
73101;BME280;61288;53.446;-2.266;2023-12-20T03:14:18;102356.25;;;7.10;100.00
73101;BME280;61288;53.446;-2.266;2023-12-20T03:16:49;102363.97;;;7.10;100.00
73101;BME280;61288;53.446;-2.266;2023-12-20T03:19:15;102380.31;;;7.11;100.00
73101;BME280;61288;53.446;-2.266;2023-12-20T03:21:41;102356.25;;;7.12;100.00
73101;BME280;61288;53.446;-2.266;2023-12-20T03:24:06;102355.41;;;7.14;100.00
73101;BME280;61288;53.446;-2.266;2023-12-20T03:26:32;102365.72;;;7.14;100.00
73101;BME280;61288;53.446;-2.266;2023-12-20T03:28:57;102359.72;;;7.15;100.00
73101;BME280;61288;53.446;-2.266;2023-12-20T03:31:23;102361.41;;;7.21;100.00
73101;BME280;61288;53.446;-2.266;2023-12-20T03:33:48;102367.44;;;7.25;100.00
73101;BME280;61288;53.446;-2.266;2023-12-20T03:36:14;102370.03;;;7.25;100.00
73101;BME280;61288;53.446;-2.266;2023-12-20T03:38:39;102362.28;;;7.28;100.00
73101;BME280;61288;53.446;-2.266;2023-12-20T03:41:06;102351.97;;;7.28;100.00
73101;BME280;61288;53.446;-2.266;2023-12-20T03:43:32;102362.28;;;7.28;100.00
73101;BME280;61288;53.446;-2.266;2023-12-20T03:45:58;102367.44;;;7.29;100.00
73101;BME280;61288;53.446;-2.266;2023-12-20T03:48:24;102366.59;;;7.30;100.00
73101;BME280;61288;53.446;-2.266;2023-12-20T03:50:49;102359.72;;;7.29;100.00
73101;BME280;61288;53.446;-2.266;2023-12-20T03:53:15;102364.00;;;7.32;100.00
73101;BME280;61288;53.446;-2.266;2023-12-20T03:55:40;102349.38;;;7.31;100.00
73101;BME280;61288;53.446;-2.266;2023-12-20T03:58:05;102355.41;;;7.33;100.00
73101;BME280;61288;53.446;-2.266;2023-12-20T04:00:31;102345.97;;;7.33;100.00
73101;BME280;61288;53.446;-2.266;2023-12-20T04:02:56;102334.78;;;7.34;100.00
73101;BME280;61288;53.446;-2.266;2023-12-20T04:05:22;102340.78;;;7.36;100.00
73101;BME280;61288;53.446;-2.266;2023-12-20T04:07:47;102339.06;;;7.37;100.00
73101;BME280;61288;53.446;-2.266;2023-12-20T04:10:13;102339.09;;;7.35;100.00
73101;BME280;61288;53.446;-2.266;2023-12-20T04:12:39;102334.78;;;7.37;100.00
73101;BME280;61288;53.446;-2.266;2023-12-20T04:15:05;102342.50;;;7.36;100.00
73101;BME280;61288;53.446;-2.266;2023-12-20T04:17:34;102336.47;;;7.37;100.00
73101;BME280;61288;53.446;-2.266;2023-12-20T04:20:01;102328.75;;;7.37;100.00
73101;BME280;61288;53.446;-2.266;2023-12-20T04:22:28;102330.47;;;7.40;100.00
73101;BME280;61288;53.446;-2.266;2023-12-20T04:24:53;102336.47;;;7.40;100.00
73101;BME280;61288;53.446;-2.266;2023-12-20T04:27:19;102330.47;;;7.41;100.00
73101;BME280;61288;53.446;-2.266;2023-12-20T04:29:44;102338.19;;;7.41;100.00
73101;BME280;61288;53.446;-2.266;2023-12-20T04:32:11;102335.63;;;7.43;100.00
73101;BME280;61288;53.446;-2.266;2023-12-20T04:34:37;102333.91;;;7.46;100.00
73101;BME280;61288;53.446;-2.266;2023-12-20T04:37:03;102328.75;;;7.46;100.00
73101;BME280;61288;53.446;-2.266;2023-12-20T04:39:29;102332.16;;;7.45;100.00
73101;BME280;61288;53.446;-2.266;2023-12-20T04:41:55;102342.50;;;7.44;100.00
73101;BME280;61288;53.446;-2.266;2023-12-20T04:44:20;102350.22;;;7.42;100.00
73101;BME280;61288;53.446;-2.266;2023-12-20T04:46:45;102341.63;;;7.45;100.00
73101;BME280;61288;53.446;-2.266;2023-12-20T04:49:11;102343.38;;;7.47;100.00
73101;BME280;61288;53.446;-2.266;2023-12-20T04:51:37;102339.91;;;7.47;100.00
73101;BME280;61288;53.446;-2.266;2023-12-20T04:54:03;102337.34;;;7.47;100.00
73101;BME280;61288;53.446;-2.266;2023-12-20T04:56:29;102333.06;;;7.47;100.00
73101;BME280;61288;53.446;-2.266;2023-12-20T04:58:54;102328.75;;;7.46;100.00
73101;BME280;61288;53.446;-2.266;2023-12-20T05:01:20;102328.75;;;7.48;100.00
73101;BME280;61288;53.446;-2.266;2023-12-20T05:03:47;102340.78;;;7.47;100.00
73101;BME280;61288;53.446;-2.266;2023-12-20T05:06:12;102325.31;;;7.50;100.00
73101;BME280;61288;53.446;-2.266;2023-12-20T05:08:38;102334.75;;;7.51;100.00
73101;BME280;61288;53.446;-2.266;2023-12-20T05:11:04;102333.03;;;7.49;100.00
73101;BME280;61288;53.446;-2.266;2023-12-20T05:13:30;102331.34;;;7.49;100.00
73101;BME280;61288;53.446;-2.266;2023-12-20T05:15:55;102329.63;;;7.48;100.00
73101;BME280;61288;53.446;-2.266;2023-12-20T05:18:21;102328.72;;;7.51;100.00
73101;BME280;61288;53.446;-2.266;2023-12-20T05:20:48;102327.88;;;7.52;100.00
73101;BME280;61288;53.446;-2.266;2023-12-20T05:23:14;102317.56;;;7.50;100.00
73101;BME280;61288;53.446;-2.266;2023-12-20T05:25:40;102319.28;;;7.51;100.00
73101;BME280;61288;53.446;-2.266;2023-12-20T05:28:05;102318.44;;;7.49;100.00
73101;BME280;61288;53.446;-2.266;2023-12-20T05:30:32;102314.13;;;7.48;100.00
73101;BME280;61288;53.446;-2.266;2023-12-20T05:32:57;102312.41;;;7.47;100.00
73101;BME280;61288;53.446;-2.266;2023-12-20T05:35:23;102317.59;;;7.47;100.00
73101;BME280;61288;53.446;-2.266;2023-12-20T05:37:49;102318.41;;;7.48;100.00
73101;BME280;61288;53.446;-2.266;2023-12-20T05:40:15;102333.91;;;7.49;100.00
73101;BME280;61288;53.446;-2.266;2023-12-20T05:42:41;102325.28;;;7.49;100.00
73101;BME280;61288;53.446;-2.266;2023-12-20T05:45:06;102321.00;;;7.49;100.00
73101;BME280;61288;53.446;-2.266;2023-12-20T05:47:33;102325.31;;;7.50;100.00
73101;BME280;61288;53.446;-2.266;2023-12-20T05:49:59;102322.72;;;7.49;100.00
73101;BME280;61288;53.446;-2.266;2023-12-20T05:52:24;102320.13;;;7.49;100.00
73101;BME280;61288;53.446;-2.266;2023-12-20T05:54:50;102314.97;;;7.44;100.00
73101;BME280;61288;53.446;-2.266;2023-12-20T05:57:16;102308.13;;;7.39;100.00
73101;BME280;61288;53.446;-2.266;2023-12-20T05:59:41;102302.97;;;7.31;100.00
73101;BME280;61288;53.446;-2.266;2023-12-20T06:02:07;102308.13;;;7.28;100.00
73101;BME280;61288;53.446;-2.266;2023-12-20T06:04:32;102303.84;;;7.27;100.00
73101;BME280;61288;53.446;-2.266;2023-12-20T06:06:58;102296.09;;;7.28;100.00
73101;BME280;61288;53.446;-2.266;2023-12-20T06:09:26;102305.53;;;7.23;100.00
73101;BME280;61288;53.446;-2.266;2023-12-20T06:11:51;102305.56;;;7.21;100.00
73101;BME280;61288;53.446;-2.266;2023-12-20T06:14:17;102319.31;;;7.23;100.00
73101;BME280;61288;53.446;-2.266;2023-12-20T06:16:42;102315.84;;;7.26;100.00
73101;BME280;61288;53.446;-2.266;2023-12-20T06:19:08;102321.88;;;7.27;100.00
73101;BME280;61288;53.446;-2.266;2023-12-20T06:21:33;102317.59;;;7.26;100.00
73101;BME280;61288;53.446;-2.266;2023-12-20T06:23:59;102307.28;;;7.29;100.00
73101;BME280;61288;53.446;-2.266;2023-12-20T06:26:25;102299.53;;;7.30;100.00
73101;BME280;61288;53.446;-2.266;2023-12-20T06:28:50;102318.44;;;7.34;100.00
73101;BME280;61288;53.446;-2.266;2023-12-20T06:31:16;102319.31;;;7.37;100.00
73101;BME280;61288;53.446;-2.266;2023-12-20T06:33:42;102325.31;;;7.38;100.00
73101;BME280;61288;53.446;-2.266;2023-12-20T06:36:11;102325.28;;;7.41;100.00
73101;BME280;61288;53.446;-2.266;2023-12-20T06:38:37;102327.03;;;7.39;100.00
73101;BME280;61288;53.446;-2.266;2023-12-20T06:41:02;102318.41;;;7.40;100.00
73101;BME280;61288;53.446;-2.266;2023-12-20T06:43:28;102325.31;;;7.40;100.00
73101;BME280;61288;53.446;-2.266;2023-12-20T06:45:54;102317.56;;;7.41;100.00
73101;BME280;61288;53.446;-2.266;2023-12-20T06:48:20;102325.31;;;7.43;100.00
73101;BME280;61288;53.446;-2.266;2023-12-20T06:50:46;102340.78;;;7.41;100.00
73101;BME280;61288;53.446;-2.266;2023-12-20T06:53:12;102347.66;;;7.39;100.00
73101;BME280;61288;53.446;-2.266;2023-12-20T06:55:37;102347.66;;;7.33;100.00
73101;BME280;61288;53.446;-2.266;2023-12-20T06:58:03;102342.50;;;7.27;100.00
73101;BME280;61288;53.446;-2.266;2023-12-20T07:00:30;102362.28;;;7.20;100.00
73101;BME280;61288;53.446;-2.266;2023-12-20T07:02:56;102386.34;;;7.13;100.00
73101;BME280;61288;53.446;-2.266;2023-12-20T07:05:21;102391.50;;;7.10;100.00
73101;BME280;61288;53.446;-2.266;2023-12-20T07:07:47;102387.16;;;7.04;100.00
73101;BME280;61288;53.446;-2.266;2023-12-20T07:10:13;102396.63;;;6.99;100.00
73101;BME280;61288;53.446;-2.266;2023-12-20T07:12:39;102370.81;;;6.94;100.00
73101;BME280;61288;53.446;-2.266;2023-12-20T07:15:04;102363.94;;;6.90;100.00
73101;BME280;61288;53.446;-2.266;2023-12-20T07:17:33;102374.25;;;6.87;100.00
73101;BME280;61288;53.446;-2.266;2023-12-20T07:19:59;102372.53;;;6.86;100.00
73101;BME280;61288;53.446;-2.266;2023-12-20T07:22:31;102387.16;;;6.87;100.00
73101;BME280;61288;53.446;-2.266;2023-12-20T07:25:00;102394.00;;;6.88;100.00
73101;BME280;61288;53.446;-2.266;2023-12-20T07:27:26;102393.19;;;6.90;100.00
73101;BME280;61288;53.446;-2.266;2023-12-20T07:29:52;102403.50;;;6.93;100.00
73101;BME280;61288;53.446;-2.266;2023-12-20T07:32:17;102406.06;;;6.95;100.00
73101;BME280;61288;53.446;-2.266;2023-12-20T07:34:43;102412.97;;;6.99;100.00
73101;BME280;61288;53.446;-2.266;2023-12-20T07:37:09;102415.53;;;7.01;100.00
73101;BME280;61288;53.446;-2.266;2023-12-20T07:39:41;102414.69;;;7.03;100.00
73101;BME280;61288;53.446;-2.266;2023-12-20T07:42:08;102411.25;;;7.04;100.00
73101;BME280;61288;53.446;-2.266;2023-12-20T07:44:34;102409.50;;;7.05;100.00
73101;BME280;61288;53.446;-2.266;2023-12-20T07:47:01;102406.09;;;7.01;100.00
73101;BME280;61288;53.446;-2.266;2023-12-20T07:49:26;102417.25;;;6.99;100.00
73101;BME280;61288;53.446;-2.266;2023-12-20T07:51:52;102418.09;;;6.98;100.00
73101;BME280;61288;53.446;-2.266;2023-12-20T07:54:17;102410.38;;;6.98;100.00
73101;BME280;61288;53.446;-2.266;2023-12-20T07:56:43;102424.13;;;6.98;100.00
73101;BME280;61288;53.446;-2.266;2023-12-20T07:59:09;102425.00;;;7.00;100.00
73101;BME280;61288;53.446;-2.266;2023-12-20T08:01:34;102416.38;;;7.03;100.00
73101;BME280;61288;53.446;-2.266;2023-12-20T08:03:59;102426.72;;;7.04;100.00
73101;BME280;61288;53.446;-2.266;2023-12-20T08:06:25;102427.56;;;7.06;100.00
73101;BME280;61288;53.446;-2.266;2023-12-20T08:08:50;102430.13;;;7.05;100.00
73101;BME280;61288;53.446;-2.266;2023-12-20T08:11:16;102435.28;;;7.08;100.00
73101;BME280;61288;53.446;-2.266;2023-12-20T08:13:42;102439.59;;;7.12;100.00
73101;BME280;61288;53.446;-2.266;2023-12-20T08:16:08;102455.94;;;7.16;100.00
73101;BME280;61288;53.446;-2.266;2023-12-20T08:18:34;102444.78;;;7.18;100.00
73101;BME280;61288;53.446;-2.266;2023-12-20T08:21:00;102453.38;;;7.22;100.00
73101;BME280;61288;53.446;-2.266;2023-12-20T08:23:26;102441.34;;;7.24;100.00
73101;BME280;61288;53.446;-2.266;2023-12-20T08:25:51;102437.91;;;7.25;100.00
73101;BME280;61288;53.446;-2.266;2023-12-20T08:28:17;102436.19;;;7.27;100.00
73101;BME280;61288;53.446;-2.266;2023-12-20T08:30:42;102437.94;;;7.31;100.00
73101;BME280;61288;53.446;-2.266;2023-12-20T08:33:08;102433.63;;;7.32;100.00
73101;BME280;61288;53.446;-2.266;2023-12-20T08:35:41;102432.75;;;7.33;100.00
73101;BME280;61288;53.446;-2.266;2023-12-20T08:38:06;102442.22;;;7.32;100.00
73101;BME280;61288;53.446;-2.266;2023-12-20T08:40:37;102434.50;;;7.32;100.00
73101;BME280;61288;53.446;-2.266;2023-12-20T08:43:03;102447.38;;;7.32;100.00
73101;BME280;61288;53.446;-2.266;2023-12-20T08:45:29;102451.69;;;7.33;100.00
73101;BME280;61288;53.446;-2.266;2023-12-20T08:47:55;102452.53;;;7.34;100.00
73101;BME280;61288;53.446;-2.266;2023-12-20T08:50:21;102457.69;;;7.35;100.00
73101;BME280;61288;53.446;-2.266;2023-12-20T08:52:46;102460.25;;;7.37;100.00
73101;BME280;61288;53.446;-2.266;2023-12-20T08:55:12;102458.56;;;7.39;100.00
73101;BME280;61288;53.446;-2.266;2023-12-20T08:57:38;102470.59;;;7.39;100.00
73101;BME280;61288;53.446;-2.266;2023-12-20T09:00:04;102464.56;;;7.41;100.00
73101;BME280;61288;53.446;-2.266;2023-12-20T09:02:30;102468.03;;;7.42;100.00
73101;BME280;61288;53.446;-2.266;2023-12-20T09:04:55;102461.13;;;7.42;100.00
73101;BME280;61288;53.446;-2.266;2023-12-20T09:07:27;102460.28;;;7.45;100.00
73101;BME280;61288;53.446;-2.266;2023-12-20T09:09:55;102468.88;;;7.47;100.00
73101;BME280;61288;53.446;-2.266;2023-12-20T09:12:24;102469.75;;;7.47;100.00
73101;BME280;61288;53.446;-2.266;2023-12-20T09:14:50;102470.63;;;7.49;100.00
73101;BME280;61288;53.446;-2.266;2023-12-20T09:17:17;102467.19;;;7.50;100.00
73101;BME280;61288;53.446;-2.266;2023-12-20T09:19:43;102474.03;;;7.53;100.00
73101;BME280;61288;53.446;-2.266;2023-12-20T09:22:10;102466.31;;;7.55;100.00
73101;BME280;61288;53.446;-2.266;2023-12-20T09:24:35;102466.31;;;7.55;100.00
73101;BME280;61288;53.446;-2.266;2023-12-20T09:27:01;102466.31;;;7.56;100.00
73101;BME280;61288;53.446;-2.266;2023-12-20T09:29:27;102467.19;;;7.57;100.00
73101;BME280;61288;53.446;-2.266;2023-12-20T09:31:52;102469.75;;;7.57;100.00
73101;BME280;61288;53.446;-2.266;2023-12-20T09:34:17;102472.34;;;7.57;100.00
73101;BME280;61288;53.446;-2.266;2023-12-20T09:36:43;102483.50;;;7.57;100.00
73101;BME280;61288;53.446;-2.266;2023-12-20T09:39:14;102487.81;;;7.57;100.00
73101;BME280;61288;53.446;-2.266;2023-12-20T09:41:43;102493.84;;;7.56;100.00
73101;BME280;61288;53.446;-2.266;2023-12-20T09:44:15;102502.41;;;7.53;100.00
73101;BME280;61288;53.446;-2.266;2023-12-20T09:46:43;102509.31;;;7.53;100.00
73101;BME280;61288;53.446;-2.266;2023-12-20T09:49:10;102502.44;;;7.51;100.00
73101;BME280;61288;53.446;-2.266;2023-12-20T09:51:36;102517.91;;;7.53;100.00
73101;BME280;61288;53.446;-2.266;2023-12-20T09:54:03;102512.72;;;7.53;100.00
73101;BME280;61288;53.446;-2.266;2023-12-20T09:56:29;102515.34;;;7.55;100.00
73101;BME280;61288;53.446;-2.266;2023-12-20T09:58:55;102528.22;;;7.55;100.00
73101;BME280;61288;53.446;-2.266;2023-12-20T10:01:21;102524.78;;;7.53;100.00
73101;BME280;61288;53.446;-2.266;2023-12-20T10:03:47;102535.97;;;7.51;100.00
73101;BME280;61288;53.446;-2.266;2023-12-20T10:06:13;102548.00;;;7.53;100.00
73101;BME280;61288;53.446;-2.266;2023-12-20T10:08:39;102548.00;;;7.51;100.00
73101;BME280;61288;53.446;-2.266;2023-12-20T10:11:05;102552.31;;;7.50;100.00
73101;BME280;61288;53.446;-2.266;2023-12-20T10:13:31;102558.31;;;7.53;100.00
73101;BME280;61288;53.446;-2.266;2023-12-20T10:15:59;102563.47;;;7.54;100.00
73101;BME280;61288;53.446;-2.266;2023-12-20T10:18:25;102578.09;;;7.55;100.00
73101;BME280;61288;53.446;-2.266;2023-12-20T10:20:53;102577.25;;;7.55;100.00
73101;BME280;61288;53.446;-2.266;2023-12-20T10:23:19;102571.22;;;7.57;100.00
73101;BME280;61288;53.446;-2.266;2023-12-20T10:25:58;102582.41;;;7.61;100.00
73101;BME280;61288;53.446;-2.266;2023-12-20T10:28:25;102584.13;;;7.62;100.00
73101;BME280;61288;53.446;-2.266;2023-12-20T10:30:54;102585.00;;;7.62;100.00
73101;BME280;61288;53.446;-2.266;2023-12-20T10:33:28;102593.59;;;7.63;100.00
73101;BME280;61288;53.446;-2.266;2023-12-20T10:35:55;102597.91;;;7.64;100.00
73101;BME280;61288;53.446;-2.266;2023-12-20T10:38:20;102597.06;;;7.66;100.00
73101;BME280;61288;53.446;-2.266;2023-12-20T10:40:47;102600.47;;;7.67;100.00
73101;BME280;61288;53.446;-2.266;2023-12-20T10:43:12;102591.03;;;7.69;100.00
73101;BME280;61288;53.446;-2.266;2023-12-20T10:45:38;102607.38;;;7.71;100.00
73101;BME280;61288;53.446;-2.266;2023-12-20T10:48:04;102598.78;;;7.74;100.00
73101;BME280;61288;53.446;-2.266;2023-12-20T10:50:31;102605.66;;;7.78;100.00
73101;BME280;61288;53.446;-2.266;2023-12-20T10:52:58;102598.78;;;7.83;100.00
73101;BME280;61288;53.446;-2.266;2023-12-20T10:55:25;102596.22;;;7.86;100.00
73101;BME280;61288;53.446;-2.266;2023-12-20T10:57:52;102596.22;;;7.88;100.00
73101;BME280;61288;53.446;-2.266;2023-12-20T11:00:21;102580.72;;;7.89;100.00
73101;BME280;61288;53.446;-2.266;2023-12-20T11:02:50;102581.59;;;7.91;100.00
73101;BME280;61288;53.446;-2.266;2023-12-20T11:08:20;102551.47;;;8.01;100.00
73101;BME280;61288;53.446;-2.266;2023-12-20T11:10:59;102544.59;;;8.06;100.00
73101;BME280;61288;53.446;-2.266;2023-12-20T11:13:30;102541.16;;;8.09;100.00
73101;BME280;61288;53.446;-2.266;2023-12-20T11:15:56;102527.38;;;8.12;100.00
73101;BME280;61288;53.446;-2.266;2023-12-20T11:18:31;102511.03;;;8.14;100.00
73101;BME280;61288;53.446;-2.266;2023-12-20T11:21:01;102511.03;;;8.16;100.00
73101;BME280;61288;53.446;-2.266;2023-12-20T11:23:30;102524.78;;;8.19;100.00
73101;BME280;61288;53.446;-2.266;2023-12-20T11:25:56;102484.31;;;8.21;100.00
73101;BME280;61288;53.446;-2.266;2023-12-20T11:28:26;102483.47;;;8.22;100.00
73101;BME280;61288;53.446;-2.266;2023-12-20T11:33:22;102449.06;;;8.22;100.00
73101;BME280;61288;53.446;-2.266;2023-12-20T11:35:49;102441.28;;;8.25;100.00
73101;BME280;61288;53.446;-2.266;2023-12-20T11:38:15;102424.94;;;8.26;100.00
73101;BME280;61288;53.446;-2.266;2023-12-20T11:40:42;102421.50;;;8.29;100.00
73101;BME280;61288;53.446;-2.266;2023-12-20T11:43:08;102410.28;;;8.31;100.00
73101;BME280;61288;53.446;-2.266;2023-12-20T11:45:33;102418.03;;;8.33;100.00
73101;BME280;61288;53.446;-2.266;2023-12-20T11:48:03;102398.22;;;8.33;100.00
73101;BME280;61288;53.446;-2.266;2023-12-20T11:50:29;102401.66;;;8.34;100.00
73101;BME280;61288;53.446;-2.266;2023-12-20T11:52:56;102387.88;;;8.33;100.00
73101;BME280;61288;53.446;-2.266;2023-12-20T11:55:22;102385.31;;;8.35;100.00
73101;BME280;61288;53.446;-2.266;2023-12-20T11:57:50;102389.59;;;8.36;100.00
73101;BME280;61288;53.446;-2.266;2023-12-20T12:00:17;102384.41;;;8.37;100.00
73101;BME280;61288;53.446;-2.266;2023-12-20T12:02:57;102377.53;;;8.36;100.00
73101;BME280;61288;53.446;-2.266;2023-12-20T12:05:23;102362.03;;;8.36;100.00
73101;BME280;61288;53.446;-2.266;2023-12-20T12:07:49;102356.00;;;8.37;100.00
73101;BME280;61288;53.446;-2.266;2023-12-20T12:10:14;102354.28;;;8.39;100.00
73101;BME280;61288;53.446;-2.266;2023-12-20T12:12:40;102354.25;;;8.44;100.00
73101;BME280;61288;53.446;-2.266;2023-12-20T12:15:06;102352.53;;;8.43;100.00
73101;BME280;61288;53.446;-2.266;2023-12-20T12:17:31;102347.34;;;8.46;100.00
73101;BME280;61288;53.446;-2.266;2023-12-20T12:20:07;102342.22;;;8.49;100.00
73101;BME280;61288;53.446;-2.266;2023-12-20T12:22:33;102324.09;;;8.52;100.00
73101;BME280;61288;53.446;-2.266;2023-12-20T12:25:12;102319.81;;;8.53;100.00
73101;BME280;61288;53.446;-2.266;2023-12-20T12:27:42;102317.19;;;8.55;100.00
73101;BME280;61288;53.446;-2.266;2023-12-20T12:30:08;102299.13;;;8.53;100.00
73101;BME280;61288;53.446;-2.266;2023-12-20T12:32:36;102289.66;;;8.52;100.00
73101;BME280;61288;53.446;-2.266;2023-12-20T12:35:05;102272.47;;;8.51;100.00
73101;BME280;61288;53.446;-2.266;2023-12-20T12:37:35;102267.28;;;8.48;100.00
73101;BME280;61288;53.446;-2.266;2023-12-20T12:40:06;102269.84;;;8.46;100.00
73101;BME280;61288;53.446;-2.266;2023-12-20T12:42:32;102253.50;;;8.46;100.00